Time;durP1;ratioP1;P1;durP2;ratioP2;P2;SDS_P1;SDS_P2;PMS_P1;PMS_P2;Temp;Humidity;BMP_temperature;BMP_pressure;BME280_temperature;BME280_humidity;BME280_pressure;Samples;Min_cycle;Max_cycle;Signal;HPM_P1;HPM_P2
2021/06/03 00:00:11;;;;;;;6.27;5.77;;;14.10;99.90;;;;;;2088361;28;20179;-69
2021/06/03 00:01:12;;;;;;;7.07;5.60;;;14.10;99.90;;;;;;2088115;28;20219;-68
2021/06/03 00:02:13;;;;;;;8.17;6.47;;;14.10;99.90;;;;;;2087926;28;20169;-68
2021/06/03 00:03:15;;;;;;;6.63;6.03;;;14.10;99.90;;;;;;2088350;28;20184;-68
2021/06/03 00:04:16;;;;;;;7.18;6.47;;;14.10;99.90;;;;;;2088175;28;20657;-68
2021/06/03 00:05:25;;;;;;;6.13;5.53;;;14.10;99.90;;;;;;2088418;28;20237;-68
2021/06/03 00:06:25;;;;;;;6.25;5.45;;;14.10;99.90;;;;;;2089153;28;20169;-68
2021/06/03 00:07:26;;;;;;;6.70;6.07;;;14.10;99.90;;;;;;2088926;28;20208;-68
2021/06/03 00:08:29;;;;;;;6.70;6.10;;;14.00;99.90;;;;;;2089035;28;20594;-68
2021/06/03 00:09:30;;;;;;;5.55;5.05;;;14.00;99.90;;;;;;2088790;28;20614;-68
2021/06/03 00:10:37;;;;;;;5.75;5.18;;;14.00;99.90;;;;;;2088153;28;20273;-68
2021/06/03 00:11:38;;;;;;;6.70;5.78;;;14.00;99.90;;;;;;2087311;28;20189;-68
2021/06/03 00:12:39;;;;;;;7.33;5.23;;;14.00;99.90;;;;;;2144291;22;20243;-68
2021/06/03 00:13:44;;;;;;;5.97;5.47;;;13.90;99.90;;;;;;2087702;28;20173;-68
2021/06/03 00:14:44;;;;;;;6.82;6.00;;;13.90;99.90;;;;;;2087476;28;20457;-68
2021/06/03 00:15:45;;;;;;;6.20;5.70;;;13.90;99.90;;;;;;2089418;28;20495;-67
2021/06/03 00:16:47;;;;;;;7.13;6.45;;;13.90;99.90;;;;;;2090031;28;20242;-67
2021/06/03 00:17:47;;;;;;;7.57;5.43;;;13.90;99.90;;;;;;2089647;28;20303;-68
2021/06/03 00:18:48;;;;;;;5.97;5.37;;;13.90;99.90;;;;;;2089684;28;20590;-68
2021/06/03 00:19:49;;;;;;;7.40;5.60;;;13.90;99.90;;;;;;2090057;28;20572;-68
2021/06/03 00:20:52;;;;;;;6.17;5.67;;;13.90;99.90;;;;;;2089679;28;20176;-69
2021/06/03 00:21:54;;;;;;;6.53;5.93;;;13.90;99.90;;;;;;2089520;28;20172;-67
2021/06/03 00:22:56;;;;;;;6.30;5.70;;;13.90;99.90;;;;;;2089608;28;20323;-68
2021/06/03 00:23:56;;;;;;;6.63;6.03;;;13.90;99.90;;;;;;2090401;28;20211;-68
2021/06/03 00:24:57;;;;;;;6.37;5.77;;;13.90;99.90;;;;;;2090206;28;20184;-69
2021/06/03 00:25:58;;;;;;;6.07;5.57;;;13.90;99.90;;;;;;2090368;28;20186;-68
2021/06/03 00:26:59;;;;;;;6.22;5.63;;;13.90;99.90;;;;;;2090278;28;20203;-68
2021/06/03 00:28:00;;;;;;;5.00;4.60;;;13.80;99.90;;;;;;2090462;28;20192;-68
2021/06/03 00:29:02;;;;;;;7.03;6.38;;;13.80;99.90;;;;;;2089592;28;20184;-68
2021/06/03 00:30:08;;;;;;;5.75;5.22;;;13.80;99.90;;;;;;2089732;28;20183;-68
2021/06/03 00:31:09;;;;;;;6.78;6.05;;;13.80;99.90;;;;;;2089247;28;20626;-68
2021/06/03 00:32:10;;;;;;;6.10;5.60;;;13.80;99.90;;;;;;2089709;28;20177;-68
2021/06/03 00:33:11;;;;;;;7.90;6.60;;;13.80;99.90;;;;;;2090003;28;20200;-68
2021/06/03 00:34:11;;;;;;;7.03;6.33;;;13.80;99.90;;;;;;2090276;28;20186;-68
2021/06/03 00:35:13;;;;;;;7.47;6.00;;;13.80;99.90;;;;;;2090341;28;20181;-68
2021/06/03 00:36:14;;;;;;;5.90;5.40;;;13.70;99.90;;;;;;2090312;28;20785;-68
2021/06/03 00:37:15;;;;;;;5.97;5.43;;;13.70;99.90;;;;;;2089685;28;20264;-68
2021/06/03 00:38:15;;;;;;;6.43;5.50;;;13.70;99.90;;;;;;2089702;28;20173;-68
2021/06/03 00:39:16;;;;;;;5.83;5.33;;;13.70;99.90;;;;;;2090363;28;20233;-68
2021/06/03 00:40:19;;;;;;;7.17;5.00;;;13.70;99.90;;;;;;2090292;28;20184;-68
2021/06/03 00:41:20;;;;;;;5.70;5.20;;;13.70;99.90;;;;;;2089450;28;20176;-68
2021/06/03 00:42:21;;;;;;;5.83;5.20;;;13.70;99.90;;;;;;2089348;28;20176;-68
2021/06/03 00:43:21;;;;;;;5.77;5.27;;;13.60;99.90;;;;;;2090197;28;20628;-68
2021/06/03 00:44:22;;;;;;;5.50;5.00;;;13.60;99.90;;;;;;2092709;28;20290;-68
2021/06/03 00:45:32;;;;;;;6.73;6.13;;;13.60;99.90;;;;;;2089692;28;20575;-68
2021/06/03 00:46:33;;;;;;;6.95;6.25;;;13.60;99.90;;;;;;2090882;28;20176;-68
2021/06/03 00:47:34;;;;;;;5.73;5.13;;;13.60;99.90;;;;;;2097681;28;20175;-68
2021/06/03 00:48:37;;;;;;;4.75;4.35;;;13.60;99.90;;;;;;2089589;28;20200;-68
2021/06/03 00:49:38;;;;;;;5.63;5.10;;;13.50;99.90;;;;;;2089639;28;20203;-68
2021/06/03 00:50:49;;;;;;;5.95;5.43;;;13.60;99.90;;;;;;2089517;28;20180;-68
2021/06/03 00:51:50;;;;;;;5.60;4.47;;;13.50;99.90;;;;;;2089980;28;20175;-68
2021/06/03 00:52:51;;;;;;;5.47;4.97;;;13.50;99.90;;;;;;2089920;28;20722;-68
2021/06/03 00:53:52;;;;;;;5.85;5.28;;;13.60;99.90;;;;;;2090143;28;20173;-68
2021/06/03 00:54:53;;;;;;;6.07;5.45;;;13.60;99.90;;;;;;2089462;28;20173;-68
2021/06/03 00:55:57;;;;;;;6.18;5.68;;;13.60;99.90;;;;;;2089558;28;20188;-68
2021/06/03 00:56:58;;;;;;;6.35;5.75;;;13.60;99.90;;;;;;2090208;28;20177;-68
2021/06/03 00:57:59;;;;;;;6.47;5.87;;;13.60;99.90;;;;;;2090143;28;20227;-68
2021/06/03 00:59:00;;;;;;;7.03;6.35;;;13.60;99.90;;;;;;2089923;28;20176;-68
2021/06/03 01:00:04;;;;;;;7.03;5.53;;;13.60;99.90;;;;;;2090143;28;20207;-67
2021/06/03 01:01:05;;;;;;;6.20;5.65;;;13.50;99.90;;;;;;2089953;28;20199;-68
2021/06/03 01:02:06;;;;;;;6.00;5.40;;;13.50;99.90;;;;;;2089740;28;20180;-68
2021/06/03 01:03:09;;;;;;;6.37;5.70;;;13.50;99.90;;;;;;2089228;28;20207;-68
2021/06/03 01:04:12;;;;;;;6.10;5.57;;;13.50;99.90;;;;;;2089390;28;20241;-68
2021/06/03 01:05:21;;;;;;;6.80;5.20;;;13.50;99.90;;;;;;2090014;28;20267;-68
2021/06/03 01:06:22;;;;;;;5.57;5.10;;;13.50;99.90;;;;;;2089977;28;20222;-68
2021/06/03 01:07:22;;;;;;;6.40;5.77;;;13.50;99.90;;;;;;2090009;28;20622;-68
2021/06/03 01:08:36;;;;;;;6.97;5.87;;;13.50;99.90;;;;;;2090014;28;20758;-68
2021/06/03 01:09:56;;;;;;;6.88;6.10;;;13.50;99.90;;;;;;2097482;28;20179;-68
2021/06/03 01:11:08;;;;;;;6.35;5.75;;;13.50;99.90;;;;;;2089327;28;20165;-68
2021/06/03 01:12:21;;;;;;;6.35;5.75;;;13.50;99.90;;;;;;2082636;28;20619;-68
2021/06/03 01:14:02;;;;;;;7.43;5.72;;;13.40;99.90;;;;;;2082641;28;20593;-68
2021/06/03 01:15:07;;;;;;;8.27;5.32;;;13.40;99.90;;;;;;2089646;28;20164;-68
2021/06/03 01:16:10;;;;;;;6.18;5.57;;;13.40;99.90;;;;;;2090104;28;20234;-67
2021/06/03 01:17:11;;;;;;;6.40;5.80;;;13.40;99.90;;;;;;2080860;28;20331;-68
2021/06/03 01:18:13;;;;;;;7.00;6.30;;;13.50;99.90;;;;;;2081370;28;20185;-68
2021/06/03 01:19:26;;;;;;;8.93;6.30;;;13.50;99.90;;;;;;2089238;28;20172;-68
2021/06/03 01:20:27;;;;;;;7.32;6.50;;;13.50;99.90;;;;;;2082635;28;20240;-68
2021/06/03 01:21:46;;;;;;;6.30;5.70;;;13.40;99.90;;;;;;2080889;28;20180;-68
2021/06/03 01:23:27;;;;;;;7.00;6.25;;;13.40;99.90;;;;;;2083528;28;20674;-68
2021/06/03 01:24:50;;;;;;;6.85;5.43;;;13.40;99.90;;;;;;2086547;28;20183;-68
2021/06/03 01:25:52;;;;;;;5.53;5.05;;;13.40;99.90;;;;;;2088491;28;20180;-68
2021/06/03 01:26:58;;;;;;;6.38;5.53;;;13.50;99.90;;;;;;2089315;28;20176;-68
2021/06/03 01:28:02;;;;;;;8.07;6.25;;;13.50;99.90;;;;;;2089267;28;20157;-68
2021/06/03 01:29:03;;;;;;;7.07;5.85;;;13.40;99.90;;;;;;2089304;28;20191;-68
2021/06/03 01:30:25;;;;;;;7.20;6.50;;;13.40;99.90;;;;;;2080884;28;20181;-68
2021/06/03 01:31:25;;;;;;;7.82;5.68;;;13.40;99.90;;;;;;2083501;28;20164;-67
2021/06/03 01:32:29;;;;;;;6.60;5.80;;;13.50;99.90;;;;;;2089172;28;20180;-68
2021/06/03 01:33:33;;;;;;;6.85;6.15;;;13.50;99.90;;;;;;2089051;28;20202;-68
2021/06/03 01:34:34;;;;;;;6.97;6.28;;;13.40;99.90;;;;;;2089269;28;20188;-68
2021/06/03 01:35:39;;;;;;;7.13;6.43;;;13.50;99.90;;;;;;2089163;28;20184;-67
2021/06/03 01:36:41;;;;;;;6.15;5.55;;;13.40;99.90;;;;;;2089095;28;20260;-67
2021/06/03 01:37:42;;;;;;;6.50;5.85;;;13.50;99.90;;;;;;2089293;28;20216;-68
2021/06/03 01:38:43;;;;;;;6.40;5.75;;;13.50;99.90;;;;;;2089185;28;20177;-69
2021/06/03 01:39:45;;;;;;;7.00;6.32;;;13.50;99.90;;;;;;2089786;28;20169;-67
2021/06/03 01:40:48;;;;;;;7.63;6.18;;;13.50;99.90;;;;;;2089731;28;20635;-68
2021/06/03 01:41:49;;;;;;;6.93;6.32;;;13.50;99.90;;;;;;2088661;28;20184;-67
2021/06/03 01:42:50;;;;;;;6.53;5.93;;;13.50;99.90;;;;;;2089062;28;20191;-68
2021/06/03 01:43:52;;;;;;;7.35;5.82;;;13.50;99.90;;;;;;2089273;28;20188;-68
2021/06/03 01:44:53;;;;;;;6.47;5.88;;;13.40;99.90;;;;;;2089110;28;20172;-68
2021/06/03 01:45:56;;;;;;;6.50;5.88;;;13.40;99.90;;;;;;2080836;28;20671;-68
2021/06/03 01:46:57;;;;;;;6.97;6.38;;;13.40;99.90;;;;;;2088974;28;20181;-67
2021/06/03 01:47:59;;;;;;;6.35;5.72;;;13.50;99.90;;;;;;2089727;28;20195;-68
2021/06/03 01:49:01;;;;;;;7.47;6.78;;;13.40;99.90;;;;;;2089012;28;20173;-68
2021/06/03 01:50:05;;;;;;;6.38;5.78;;;13.40;99.90;;;;;;2089193;28;20176;-68
2021/06/03 01:51:10;;;;;;;6.50;5.80;;;13.40;99.90;;;;;;2089619;28;20282;-68
2021/06/03 01:52:11;;;;;;;7.30;5.97;;;13.50;99.90;;;;;;2089081;28;20180;-67
2021/06/03 01:53:14;;;;;;;6.90;6.17;;;13.40;99.90;;;;;;2080373;28;20719;-68
2021/06/03 01:54:16;;;;;;;7.28;6.38;;;13.50;99.90;;;;;;2081227;28;20191;-68
2021/06/03 01:55:18;;;;;;;6.75;6.00;;;13.40;99.90;;;;;;2080942;28;20311;-67
2021/06/03 01:56:19;;;;;;;6.90;6.20;;;13.30;99.90;;;;;;2080863;28;20264;-68
2021/06/03 01:57:20;;;;;;;8.43;7.30;;;13.30;99.90;;;;;;2080690;28;20173;-67
2021/06/03 01:58:22;;;;;;;6.82;6.28;;;13.30;99.90;;;;;;2080627;28;20656;-68
2021/06/03 01:59:22;;;;;;;7.18;6.13;;;13.40;99.90;;;;;;2088745;28;20180;-68
2021/06/03 02:00:25;;;;;;;5.97;5.47;;;13.40;99.90;;;;;;2089751;28;20651;-68
2021/06/03 02:01:25;;;;;;;6.43;5.82;;;13.40;99.90;;;;;;2089182;28;20172;-68
2021/06/03 02:02:26;;;;;;;6.20;5.60;;;13.50;99.90;;;;;;2089605;28;20573;-68
2021/06/03 02:03:27;;;;;;;6.40;5.80;;;13.50;99.90;;;;;;2089455;28;20230;-68
2021/06/03 02:04:28;;;;;;;7.43;6.20;;;13.40;99.90;;;;;;2089022;28;20180;-68
2021/06/03 02:05:35;;;;;;;6.70;6.10;;;13.50;99.90;;;;;;2088905;28;20180;-68
2021/06/03 02:06:36;;;;;;;6.75;6.13;;;13.40;99.90;;;;;;2086388;28;20201;-68
2021/06/03 02:07:37;;;;;;;7.53;6.73;;;13.40;99.90;;;;;;2082550;28;20677;-68
2021/06/03 02:08:38;;;;;;;7.13;6.07;;;13.40;99.90;;;;;;2081786;28;20272;-68
2021/06/03 02:09:39;;;;;;;8.20;7.40;;;13.50;99.90;;;;;;2081230;28;20652;-68
2021/06/03 02:10:41;;;;;;;8.47;7.10;;;13.50;99.90;;;;;;2080681;28;20881;-68
2021/06/03 02:11:46;;;;;;;7.68;6.93;;;13.40;99.90;;;;;;2080512;28;20188;-67
2021/06/03 02:13:18;;;;;;;8.55;7.75;;;13.50;99.90;;;;;;2080985;28;20280;-68
2021/06/03 02:14:25;;;;;;;8.05;7.35;;;13.40;99.90;;;;;;2080640;28;20203;-68
2021/06/03 02:15:33;;;;;;;7.05;6.45;;;13.40;99.90;;;;;;2065356;28;20559;-68
2021/06/03 02:16:52;;;;;;;6.97;6.40;;;13.40;99.90;;;;;;2073783;28;20174;-68
2021/06/03 02:17:58;;;;;;;8.35;6.88;;;13.30;99.90;;;;;;2080924;28;20193;-68
2021/06/03 02:19:05;;;;;;;8.15;7.35;;;13.30;99.90;;;;;;2081371;28;20235;-68
2021/06/03 02:20:10;;;;;;;9.07;7.53;;;13.30;99.90;;;;;;2080491;28;20169;-68
2021/06/03 02:21:11;;;;;;;7.57;6.88;;;13.30;99.90;;;;;;2080526;28;20185;-67
2021/06/03 02:22:12;;;;;;;6.72;6.13;;;13.30;99.90;;;;;;2080624;28;20173;-68
2021/06/03 02:23:16;;;;;;;7.70;7.00;;;13.30;99.90;;;;;;2072438;28;20185;-68
2021/06/03 02:24:18;;;;;;;8.30;7.25;;;13.20;99.90;;;;;;2072798;28;20186;-68
2021/06/03 02:25:19;;;;;;;7.53;6.82;;;13.20;99.90;;;;;;2072300;28;20197;-68
2021/06/03 02:26:21;;;;;;;7.78;6.97;;;13.20;99.90;;;;;;2072269;28;20597;-67
2021/06/03 02:27:22;;;;;;;6.72;6.13;;;13.20;99.90;;;;;;2080458;28;20566;-68
2021/06/03 02:28:24;;;;;;;7.45;6.80;;;13.20;99.90;;;;;;2088818;28;20188;-68
2021/06/03 02:29:25;;;;;;;9.90;8.70;;;13.20;99.90;;;;;;2088676;28;20187;-68
2021/06/03 02:30:27;;;;;;;7.68;6.97;;;13.20;99.90;;;;;;2088617;28;20180;-67
2021/06/03 02:31:30;;;;;;;9.30;7.80;;;13.20;99.90;;;;;;2088347;28;20673;-68
2021/06/03 02:32:34;;;;;;;6.82;6.22;;;13.20;99.90;;;;;;2080437;28;20270;-68
2021/06/03 02:33:35;;;;;;;7.20;6.50;;;13.30;99.90;;;;;;2072616;28;20185;-68
2021/06/03 02:34:36;;;;;;;8.37;7.57;;;13.40;99.90;;;;;;2072384;28;20182;-68
2021/06/03 02:35:38;;;;;;;8.40;7.60;;;13.40;99.90;;;;;;2072288;28;20475;-68
2021/06/03 02:36:39;;;;;;;8.70;7.55;;;13.40;99.90;;;;;;2072370;28;20275;-68
2021/06/03 02:37:43;;;;;;;8.27;7.47;;;13.40;99.90;;;;;;2079587;28;20177;-68
2021/06/03 02:38:44;;;;;;;9.13;8.00;;;13.40;99.90;;;;;;2087435;28;20196;-68
2021/06/03 02:39:48;;;;;;;11.40;8.43;;;13.40;99.90;;;;;;2088639;28;20168;-68
2021/06/03 02:40:50;;;;;;;7.43;6.80;;;13.40;99.90;;;;;;2088696;28;20170;-68
2021/06/03 02:41:51;;;;;;;8.23;7.28;;;13.40;99.90;;;;;;2088254;28;20652;-67
2021/06/03 02:42:53;;;;;;;8.60;7.80;;;13.40;99.90;;;;;;2088455;28;20192;-68
2021/06/03 02:43:53;;;;;;;8.45;7.65;;;13.40;99.90;;;;;;2088651;28;20647;-68
2021/06/03 02:44:54;;;;;;;11.07;8.80;;;13.30;99.90;;;;;;2089304;28;20172;-68
2021/06/03 02:45:55;;;;;;;8.10;7.30;;;13.30;99.90;;;;;;2089354;28;20187;-68
2021/06/03 02:46:56;;;;;;;9.43;8.43;;;13.30;99.90;;;;;;2089255;28;20179;-68
2021/06/03 02:47:58;;;;;;;8.00;7.20;;;13.30;99.90;;;;;;2089311;28;20175;-68
2021/06/03 02:48:59;;;;;;;8.38;7.57;;;13.30;99.90;;;;;;2089385;28;20567;-68
2021/06/03 02:50:00;;;;;;;8.67;7.87;;;13.20;99.90;;;;;;2089457;28;20263;-68
2021/06/03 02:51:00;;;;;;;10.10;8.10;;;13.20;99.90;;;;;;2089287;28;20206;-68
2021/06/03 02:52:06;;;;;;;9.40;8.40;;;13.20;99.90;;;;;;2088816;28;20655;-68
2021/06/03 02:53:08;;;;;;;9.30;7.95;;;13.20;99.90;;;;;;2088405;28;20216;-68
2021/06/03 02:54:08;;;;;;;9.60;8.57;;;13.20;99.90;;;;;;2088497;28;20276;-68
2021/06/03 02:55:14;;;;;;;10.80;9.20;;;13.30;99.90;;;;;;2089184;28;20188;-68
2021/06/03 02:56:17;;;;;;;15.27;10.77;;;13.30;99.90;;;;;;2088556;28;20180;-68
2021/06/03 02:57:18;;;;;;;18.42;11.52;;;13.30;99.90;;;;;;2088618;28;20176;-68
2021/06/03 02:58:19;;;;;;;18.37;11.40;;;13.40;99.90;;;;;;2088992;28;20176;-68
2021/06/03 02:59:19;;;;;;;13.23;10.13;;;13.40;99.90;;;;;;2089075;28;20184;-68
2021/06/03 03:00:28;;;;;;;12.37;8.77;;;13.40;99.90;;;;;;2089028;28;20176;-68
2021/06/03 03:01:29;;;;;;;10.15;8.35;;;13.40;99.90;;;;;;2088330;28;20164;-68
2021/06/03 03:02:30;;;;;;;9.90;9.00;;;13.40;99.90;;;;;;2088333;28;20183;-68
2021/06/03 03:03:30;;;;;;;11.97;8.27;;;13.40;99.90;;;;;;2089012;28;20176;-68
2021/06/03 03:04:31;;;;;;;9.63;8.30;;;13.30;99.90;;;;;;2089024;28;20180;-68
2021/06/03 03:05:33;;;;;;;9.80;8.60;;;13.30;99.90;;;;;;2089065;28;20238;-68
2021/06/03 03:06:33;;;;;;;10.45;9.07;;;13.30;99.90;;;;;;2088931;28;20181;-68
2021/06/03 03:07:35;;;;;;;18.00;13.03;;;13.20;99.90;;;;;;2089153;28;20694;-68
2021/06/03 03:08:35;;;;;;;15.13;11.38;;;13.20;99.90;;;;;;2088816;28;20180;-68
2021/06/03 03:09:36;;;;;;;13.60;10.57;;;13.20;99.90;;;;;;2089086;28;20176;-68
2021/06/03 03:10:43;;;;;;;16.10;10.43;;;13.20;99.90;;;;;;2089035;28;20181;-68
2021/06/03 03:11:44;;;;;;;10.73;9.05;;;13.20;99.90;;;;;;2088262;28;20578;-68
2021/06/03 03:12:45;;;;;;;12.87;8.53;;;13.20;99.90;;;;;;2088081;28;20208;-68
2021/06/03 03:13:47;;;;;;;13.77;9.53;;;13.20;99.90;;;;;;2088403;28;20655;-68
2021/06/03 03:14:47;;;;;;;10.20;8.35;;;13.10;99.90;;;;;;2088206;28;20450;-68
2021/06/03 03:15:49;;;;;;;11.07;9.33;;;13.10;99.90;;;;;;2089022;28;20192;-68
2021/06/03 03:16:51;;;;;;;11.75;9.68;;;13.10;99.90;;;;;;2088323;28;20203;-68
2021/06/03 03:17:52;;;;;;;12.90;9.25;;;13.00;99.90;;;;;;2088476;28;20250;-68
2021/06/03 03:18:53;;;;;;;8.25;7.40;;;13.00;99.90;;;;;;2088990;28;20195;-68
2021/06/03 03:19:54;;;;;;;8.13;6.63;;;13.00;99.90;;;;;;2088885;28;20173;-68
2021/06/03 03:20:55;;;;;;;8.83;7.20;;;13.00;99.90;;;;;;2089061;28;20180;-68
2021/06/03 03:21:56;;;;;;;9.32;8.35;;;13.00;99.90;;;;;;2088853;28;20272;-68
2021/06/03 03:22:57;;;;;;;9.67;8.17;;;12.90;99.90;;;;;;2088806;28;20211;-68
2021/06/03 03:23:58;;;;;;;8.05;7.18;;;12.90;99.90;;;;;;2089193;28;20181;-68
2021/06/03 03:24:59;;;;;;;9.97;8.97;;;12.80;99.90;;;;;;2088188;28;20216;-68
2021/06/03 03:26:00;;;;;;;9.57;8.63;;;12.80;99.90;;;;;;2088317;28;20180;-68
2021/06/03 03:27:00;;;;;;;8.50;7.60;;;12.80;99.90;;;;;;2088892;28;20215;-68
2021/06/03 03:28:03;;;;;;;11.13;8.93;;;12.80;99.90;;;;;;2088986;28;20190;-68
2021/06/03 03:29:04;;;;;;;12.18;9.82;;;12.70;99.90;;;;;;2088143;28;20881;-68
2021/06/03 03:30:07;;;;;;;10.40;9.40;;;12.70;99.90;;;;;;2088278;28;20207;-68
2021/06/03 03:31:07;;;;;;;7.95;7.15;;;12.70;99.90;;;;;;2088076;28;20180;-68
2021/06/03 03:32:08;;;;;;;7.13;6.53;;;12.60;99.90;;;;;;2088311;28;20639;-68
2021/06/03 03:33:12;;;;;;;7.80;7.00;;;12.60;99.90;;;;;;2088219;28;20210;-68
2021/06/03 03:34:13;;;;;;;8.40;7.45;;;12.60;99.90;;;;;;2080489;28;20223;-68
2021/06/03 03:35:15;;;;;;;8.50;7.63;;;12.60;99.90;;;;;;2088252;28;20200;-68
2021/06/03 03:36:15;;;;;;;8.10;7.25;;;12.50;99.90;;;;;;2088283;28;20699;-68
2021/06/03 03:37:16;;;;;;;7.53;6.70;;;12.50;99.90;;;;;;2088429;28;20185;-68
2021/06/03 03:38:19;;;;;;;7.13;6.43;;;12.50;99.90;;;;;;2088297;28;20212;-68
2021/06/03 03:39:20;;;;;;;7.13;6.53;;;12.60;99.90;;;;;;2088371;28;20186;-68
2021/06/03 03:40:23;;;;;;;8.43;7.63;;;12.60;99.90;;;;;;2088264;28;20184;-68
2021/06/03 03:41:24;;;;;;;7.63;6.72;;;12.60;99.90;;;;;;2088030;28;20227;-68
2021/06/03 03:42:26;;;;;;;7.43;6.72;;;12.60;99.90;;;;;;2088151;28;20180;-68
2021/06/03 03:43:27;;;;;;;8.88;7.95;;;12.60;99.90;;;;;;2088930;28;20554;-68
2021/06/03 03:44:27;;;;;;;9.33;8.30;;;12.60;99.90;;;;;;2088793;28;20180;-68
2021/06/03 03:45:28;;;;;;;11.73;9.60;;;12.60;99.90;;;;;;2089085;28;20595;-68
2021/06/03 03:46:29;;;;;;;12.23;9.47;;;12.60;99.90;;;;;;2088730;28;20219;-68
2021/06/03 03:47:30;;;;;;;11.03;8.83;;;12.60;99.90;;;;;;2088890;28;20579;-68
2021/06/03 03:48:30;;;;;;;10.70;8.93;;;12.60;99.90;;;;;;2088871;28;20271;-68
2021/06/03 03:49:31;;;;;;;9.93;8.93;;;12.60;99.90;;;;;;2090591;28;20195;-68
2021/06/03 03:50:34;;;;;;;10.07;8.37;;;12.60;99.90;;;;;;2090537;28;20184;-65
2021/06/03 03:51:34;;;;;;;9.07;7.32;;;12.60;99.90;;;;;;2089696;28;20551;-68
2021/06/03 03:52:37;;;;;;;8.33;7.53;;;12.70;99.90;;;;;;2089895;28;20311;-68
2021/06/03 03:53:43;;;;;;;9.00;8.10;;;12.80;99.90;;;;;;2090652;28;20220;-68
2021/06/03 03:54:43;;;;;;;11.68;8.02;;;12.80;99.90;;;;;;2089945;28;20729;-68
2021/06/03 03:55:44;;;;;;;8.87;7.83;;;12.80;99.90;;;;;;2090105;28;20183;-68
2021/06/03 03:56:45;;;;;;;10.43;8.55;;;12.80;99.90;;;;;;2090438;28;20245;-68
2021/06/03 03:57:48;;;;;;;10.83;8.63;;;12.80;99.90;;;;;;2090418;28;20184;-68
2021/06/03 03:58:49;;;;;;;11.13;8.93;;;12.90;99.90;;;;;;2089762;28;20180;-68
2021/06/03 03:59:50;;;;;;;9.43;8.43;;;12.80;99.90;;;;;;2089880;28;20173;-68
2021/06/03 04:00:52;;;;;;;10.77;9.05;;;12.90;99.90;;;;;;2090317;28;20599;-68
2021/06/03 04:01:54;;;;;;;10.02;8.50;;;12.90;99.90;;;;;;2089631;28;20180;-68
2021/06/03 04:02:55;;;;;;;8.52;7.22;;;12.90;99.90;;;;;;2089561;28;20200;-68
2021/06/03 04:03:56;;;;;;;12.05;8.93;;;13.00;99.90;;;;;;2090465;28;20180;-68
2021/06/03 04:04:57;;;;;;;10.30;8.75;;;13.10;99.90;;;;;;2089869;28;20189;-68
2021/06/03 04:05:58;;;;;;;9.70;8.37;;;13.10;99.90;;;;;;2088392;28;20825;-68
2021/06/03 04:06:59;;;;;;;10.63;9.40;;;13.10;99.90;;;;;;2090063;28;20192;-68
2021/06/03 04:08:00;;;;;;;10.88;9.45;;;13.20;99.90;;;;;;2090240;28;20268;-66
2021/06/03 04:09:01;;;;;;;10.27;8.57;;;13.20;99.90;;;;;;2090197;28;21003;-68
2021/06/03 04:10:06;;;;;;;11.73;8.90;;;13.20;99.90;;;;;;2090295;28;20690;-68
2021/06/03 04:11:06;;;;;;;9.95;8.73;;;13.30;99.90;;;;;;2090060;28;20192;-68
2021/06/03 04:12:09;;;;;;;11.53;9.30;;;13.30;99.90;;;;;;2090316;28;20180;-68
2021/06/03 04:13:09;;;;;;;10.25;9.20;;;13.30;99.90;;;;;;2089143;28;20265;-68
2021/06/03 04:14:10;;;;;;;9.57;8.67;;;13.30;99.90;;;;;;2089718;28;20644;-68
2021/06/03 04:15:13;;;;;;;9.77;7.70;;;13.30;99.90;;;;;;2090250;28;20180;-68
2021/06/03 04:16:14;;;;;;;10.45;7.93;;;13.40;99.90;;;;;;2090303;28;20176;-68
2021/06/03 04:17:15;;;;;;;10.20;7.27;;;13.40;99.90;;;;;;2090258;28;20212;-68
2021/06/03 04:18:15;;;;;;;9.43;8.43;;;13.40;99.90;;;;;;2090298;28;20715;-68
2021/06/03 04:19:16;;;;;;;8.83;7.53;;;13.40;99.90;;;;;;2090043;28;20180;-68
2021/06/03 04:20:21;;;;;;;8.77;7.47;;;13.40;99.90;;;;;;2090370;28;20263;-68
2021/06/03 04:21:22;;;;;;;8.00;6.82;;;13.50;99.90;;;;;;2089327;28;20180;-68
2021/06/03 04:22:23;;;;;;;8.33;7.47;;;13.50;99.90;;;;;;2089584;28;20184;-68
2021/06/03 04:23:24;;;;;;;8.23;6.82;;;13.50;99.90;;;;;;2089525;28;20753;-67
2021/06/03 04:24:26;;;;;;;8.35;7.40;;;13.50;99.90;;;;;;2089516;28;20189;-68
2021/06/03 04:25:28;;;;;;;8.05;7.25;;;13.40;99.90;;;;;;2090131;28;20184;-68
2021/06/03 04:26:29;;;;;;;8.77;7.03;;;13.40;99.90;;;;;;2090216;28;20183;-68
2021/06/03 04:27:29;;;;;;;7.60;6.90;;;13.40;99.90;;;;;;2090194;28;20195;-68
2021/06/03 04:28:30;;;;;;;7.97;7.10;;;13.50;99.90;;;;;;2090233;28;20206;-67
2021/06/03 04:29:31;;;;;;;7.40;6.70;;;13.50;99.90;;;;;;2090019;28;20176;-68
2021/06/03 04:30:34;;;;;;;10.70;7.50;;;13.40;99.90;;;;;;2090195;28;20261;-68
2021/06/03 04:31:34;;;;;;;8.23;7.20;;;13.40;99.90;;;;;;2089272;28;20177;-68
2021/06/03 04:32:36;;;;;;;9.63;7.97;;;13.40;99.90;;;;;;2089572;28;20285;-68
2021/06/03 04:33:36;;;;;;;7.70;6.97;;;13.40;99.90;;;;;;2090010;28;20576;-68
2021/06/03 04:34:37;;;;;;;9.30;8.10;;;13.30;99.90;;;;;;2090084;28;20207;-67
2021/06/03 04:35:38;;;;;;;10.13;8.77;;;13.30;99.90;;;;;;2090096;28;20528;-67
2021/06/03 04:36:39;;;;;;;8.05;7.25;;;13.30;99.90;;;;;;2090040;28;20188;-67
2021/06/03 04:37:42;;;;;;;8.48;7.30;;;13.20;99.90;;;;;;2090165;28;20894;-68
2021/06/03 04:38:43;;;;;;;10.32;7.25;;;13.30;99.90;;;;;;2089419;28;20564;-68
2021/06/03 04:39:44;;;;;;;7.73;6.93;;;13.30;99.90;;;;;;2089570;28;20175;-68
2021/06/03 04:40:44;;;;;;;9.97;8.97;;;13.40;99.90;;;;;;2090016;28;20762;-68
2021/06/03 04:41:45;;;;;;;11.50;8.63;;;13.40;99.90;;;;;;2089977;28;20173;-67
2021/06/03 04:42:47;;;;;;;10.20;8.60;;;13.40;99.90;;;;;;2089912;28;20676;-68
2021/06/03 04:43:48;;;;;;;11.02;8.95;;;13.40;99.90;;;;;;2094649;28;20199;-67
2021/06/03 04:44:49;;;;;;;10.37;8.03;;;13.40;99.90;;;;;;2097599;28;20547;-67
2021/06/03 04:45:50;;;;;;;8.00;6.80;;;13.40;99.90;;;;;;2105945;28;20182;-68
2021/06/03 04:46:51;;;;;;;8.23;7.40;;;13.40;99.90;;;;;;2106032;28;20577;-68
2021/06/03 04:47:52;;;;;;;8.47;7.30;;;13.40;99.90;;;;;;2098385;28;20176;-68
2021/06/03 04:48:54;;;;;;;8.70;7.30;;;13.40;99.90;;;;;;2098232;28;20171;-67
2021/06/03 04:49:54;;;;;;;8.77;7.97;;;13.50;99.90;;;;;;2098323;28;20182;-68
2021/06/03 04:50:55;;;;;;;8.73;7.83;;;13.50;99.90;;;;;;2098096;28;20621;-67
2021/06/03 04:52:24;;;;;;;9.15;7.57;;;13.50;99.90;;;;;;2098150;28;20206;-68
2021/06/03 04:53:18;;;;;;;8.93;7.78;;;13.50;99.90;;;;;;2098033;28;20214;-67
2021/06/03 04:54:18;;;;;;;7.53;6.82;;;13.50;99.90;;;;;;2097625;28;20911;-68
2021/06/03 04:55:22;;;;;;;7.20;6.60;;;13.50;99.90;;;;;;2097627;28;20180;-68
2021/06/03 04:56:22;;;;;;;8.00;6.45;;;13.50;99.90;;;;;;2098150;28;20262;-67
2021/06/03 04:57:25;;;;;;;7.33;6.73;;;13.50;99.90;;;;;;2098161;28;20221;-67
2021/06/03 04:58:27;;;;;;;7.32;6.63;;;13.50;99.90;;;;;;2097622;28;20171;-68
2021/06/03 04:59:27;;;;;;;7.82;7.13;;;13.50;99.90;;;;;;2097554;28;20179;-68
2021/06/03 05:00:32;;;;;;;7.33;6.60;;;13.60;99.90;;;;;;2097479;28;20203;-68
2021/06/03 05:01:34;;;;;;;6.85;6.00;;;13.60;99.90;;;;;;2097971;28;20182;-68
2021/06/03 05:02:35;;;;;;;6.72;6.20;;;13.60;99.90;;;;;;2097439;28;20188;-68
2021/06/03 05:03:36;;;;;;;7.43;6.80;;;13.80;99.90;;;;;;2097524;28;20629;-67
2021/06/03 05:04:36;;;;;;;6.97;6.23;;;13.90;99.90;;;;;;2098231;28;20202;-68
2021/06/03 05:05:37;;;;;;;7.17;6.00;;;13.90;99.90;;;;;;2098136;28;20317;-67
2021/06/03 05:06:38;;;;;;;6.65;6.05;;;14.00;99.90;;;;;;2097664;28;20218;-67
2021/06/03 05:07:39;;;;;;;6.63;6.03;;;14.00;99.90;;;;;;2097407;28;20180;-67
2021/06/03 05:08:40;;;;;;;7.25;6.55;;;14.10;99.90;;;;;;2097546;28;20819;-67
2021/06/03 05:09:41;;;;;;;6.87;6.17;;;14.30;99.90;;;;;;2097482;28;20180;-68
2021/06/03 05:10:42;;;;;;;8.97;6.60;;;14.30;99.90;;;;;;2099296;28;20179;-67
2021/06/03 05:11:42;;;;;;;6.87;6.23;;;14.30;99.90;;;;;;2098998;28;20202;-68
2021/06/03 05:12:45;;;;;;;6.90;6.17;;;14.30;99.90;;;;;;2098805;28;20320;-67
2021/06/03 05:13:46;;;;;;;7.63;6.88;;;14.30;99.90;;;;;;2099232;28;20179;-67
2021/06/03 05:14:46;;;;;;;6.00;5.40;;;14.30;99.90;;;;;;2099243;28;20687;-67
2021/06/03 05:15:47;;;;;;;5.73;5.23;;;14.30;99.90;;;;;;2098675;28;20168;-67
2021/06/03 05:16:48;;;;;;;6.77;6.17;;;14.30;99.90;;;;;;2098781;28;20792;-67
2021/06/03 05:17:51;;;;;;;5.40;4.90;;;14.40;99.90;;;;;;2099128;28;20172;-67
2021/06/03 05:18:51;;;;;;;6.03;5.53;;;14.50;99.90;;;;;;2099131;28;20175;-68
2021/06/03 05:19:52;;;;;;;7.13;5.60;;;14.60;99.90;;;;;;2099303;28;20172;-68
2021/06/03 05:20:53;;;;;;;6.67;5.63;;;14.60;99.90;;;;;;2099631;28;20172;-68
2021/06/03 05:21:54;;;;;;;5.97;5.40;;;14.70;99.90;;;;;;2099412;28;20176;-67
2021/06/03 05:22:58;;;;;;;5.70;5.20;;;14.70;99.90;;;;;;2099517;28;20257;-68
2021/06/03 05:23:59;;;;;;;4.88;4.47;;;14.80;99.90;;;;;;2099379;28;20191;-67
2021/06/03 05:25:00;;;;;;;5.07;4.57;;;14.80;99.90;;;;;;2099592;28;20187;-68